Time;durP1;ratioP1;P1;durP2;ratioP2;P2;SDS_P1;SDS_P2;PMS_P1;PMS_P2;Temp;Humidity;BMP_temperature;BMP_pressure;BME280_temperature;BME280_humidity;BME280_pressure;Samples;Min_cycle;Max_cycle;Signal;HPM_P1;HPM_P2
2022/02/10 00:18:00;;;;;;;16.70;5.20;;;;;;;6.81;76.33;100950.90;105252;1284;22542;-59
2022/02/10 00:20:35;;;;;;;16.10;5.60;;;;;;;6.81;76.30;100955.50;104834;1284;25169;-60
2022/02/10 00:34:25;;;;;;;20.10;5.50;;;;;;;6.84;76.46;100957.80;104338;1291;24404;-59
2022/02/10 00:37:09;;;;;;;21.80;6.40;;;;;;;6.84;76.51;100962.65;104393;1289;22576;-58
2022/02/10 00:40:02;;;;;;;21.00;6.60;;;;;;;6.84;76.51;100963.36;104659;1287;26612;-57
2022/02/10 00:42:32;;;;;;;23.70;7.60;;;;;;;6.84;76.48;100959.25;104661;1287;22634;-59
2022/02/10 00:45:01;;;;;;;22.40;6.30;;;;;;;6.83;76.47;100956.58;104860;1284;22544;-59
2022/02/10 00:47:37;;;;;;;23.40;6.60;;;;;;;6.83;76.44;100961.17;105265;1281;22562;-59
2022/02/10 00:50:07;;;;;;;23.50;6.80;;;;;;;6.83;76.50;100965.21;105218;1281;25173;-60
2022/02/10 00:52:41;;;;;;;;;;;;;;;6.84;76.48;100965.66;105433;1281;25248;-60
2022/02/10 00:55:14;;;;;;;16.50;4.50;;;;;;;6.84;76.56;100964.16;105126;1282;25316;-59
2022/02/10 00:57:43;;;;;;;18.30;5.00;;;;;;;6.84;76.50;100965.27;105330;1281;23508;-58
2022/02/10 01:00:46;;;;;;;16.30;4.50;;;;;;;6.84;76.48;100961.08;105632;1279;25593;-59
2022/02/10 01:11:48;;;;;;;13.30;4.30;;;;;;;6.85;76.69;100946.93;105795;1271;23078;-58
2022/02/10 01:14:34;;;;;;;18.90;5.10;;;;;;;6.86;76.69;100949.91;105856;1271;22547;-60
2022/02/10 01:31:03;;;;;;;15.70;4.10;;;;;;;6.81;76.74;100936.48;105921;1271;22573;-58
2022/02/10 01:33:34;;;;;;;16.00;4.50;;;;;;;6.81;76.75;100929.59;105847;1270;22542;-58
2022/02/10 01:36:05;;;;;;;15.80;4.40;;;;;;;6.82;76.77;100929.33;105671;1271;22539;-58
2022/02/10 01:38:34;;;;;;;17.90;5.00;;;;;;;6.82;76.85;100930.66;105759;1271;24321;-59
2022/02/10 01:58:07;;;;;;;14.70;4.40;;;;;;;6.79;76.84;100910.61;105401;1276;25477;-59
2022/02/10 02:03:26;;;;;;;16.90;5.20;;;;;;;6.79;77.01;100909.88;105580;1276;23054;-59
2022/02/10 02:06:01;;;;;;;16.90;5.60;;;;;;;6.79;76.98;100907.34;105587;1276;25432;-60
2022/02/10 02:08:33;;;;;;;15.80;5.50;;;;;;;6.78;76.93;100898.75;105494;1276;23343;-59
2022/02/10 02:11:03;;;;;;;15.30;4.30;;;;;;;6.79;76.99;100899.27;105368;1276;23024;-59
2022/02/10 02:13:32;;;;;;;21.00;5.60;;;;;;;6.79;76.98;100894.03;105651;1276;22589;-57
2022/02/10 02:16:02;;;;;;;13.90;4.40;;;;;;;6.79;77.03;100890.37;105476;1276;24534;-59
2022/02/10 02:18:32;;;;;;;16.20;5.20;;;;;;;6.81;77.13;100887.01;105498;1277;24284;-58
2022/02/10 02:21:02;;;;;;;17.70;4.60;;;;;;;6.81;77.10;100878.98;105869;1270;24389;-58
2022/02/10 02:23:31;;;;;;;20.20;6.00;;;;;;;6.82;77.05;100879.69;106002;1271;22592;-59
2022/02/10 02:26:06;;;;;;;22.30;7.30;;;;;;;6.81;77.02;100881.21;106126;1271;26581;-60
2022/02/10 02:28:38;;;;;;;25.80;8.50;;;;;;;6.81;77.10;100883.36;106056;1271;24283;-58
2022/02/10 02:31:11;;;;;;;27.20;8.20;;;;;;;6.79;77.09;100881.05;105758;1271;25392;-58
2022/02/10 02:34:12;;;;;;;20.00;6.20;;;;;;;6.76;77.12;100879.07;105913;1271;22553;-59
2022/02/10 03:07:37;;;;;;;17.10;5.00;;;;;;;6.64;77.49;100869.56;105518;1277;22553;-59
2022/02/10 03:10:22;;;;;;;18.20;5.50;;;;;;;6.63;77.41;100869.34;105528;1277;24425;-59
2022/02/10 03:12:50;;;;;;;16.60;5.00;;;;;;;6.63;77.55;100869.04;105559;1277;26521;-59
2022/02/10 03:15:26;;;;;;;18.00;6.10;;;;;;;6.62;77.53;100868.75;105574;1276;22706;-59
2022/02/10 03:18:12;;;;;;;19.30;5.00;;;;;;;6.62;77.62;100870.25;105707;1276;22714;-60
2022/02/10 03:20:56;;;;;;;17.20;5.40;;;;;;;6.60;77.56;100871.40;105570;1277;22569;-59
2022/02/10 04:02:55;;;;;;;13.20;3.80;;;;;;;6.55;77.72;100851.80;105555;1276;25535;-58
2022/02/10 04:11:27;;;;;;;13.70;3.70;;;;;;;6.53;77.70;100849.55;105338;1276;25316;-59
2022/02/10 04:14:03;;;;;;;14.80;3.60;;;;;;;6.53;77.58;100849.08;105598;1277;22704;-59
2022/02/10 04:16:35;;;;;;;12.40;3.60;;;;;;;6.52;77.64;100854.48;105625;1276;24521;-56
2022/02/10 04:21:58;;;;;;;15.10;3.80;;;;;;;6.51;77.68;100855.38;105862;1271;22624;-58
2022/02/10 04:25:02;;;;;;;13.10;3.50;;;;;;;6.51;77.73;100856.42;105988;1270;22566;-58
2022/02/10 04:27:54;;;;;;;12.90;3.60;;;;;;;6.50;77.68;100855.88;105823;1270;22554;-58
2022/02/10 04:30:36;;;;;;;13.40;4.20;;;;;;;6.50;77.65;100853.82;105775;1270;25215;-59
2022/02/10 04:56:41;;;;;;;21.20;5.30;;;;;;;6.58;77.66;100835.70;104331;1290;24289;-58
2022/02/10 04:59:26;;;;;;;14.50;3.80;;;;;;;6.58;77.64;100834.27;104404;1290;24240;-59
2022/02/10 05:02:15;;;;;;;19.00;3.90;;;;;;;6.58;77.66;100832.01;104208;1290;25612;-58
2022/02/10 05:16:24;;;;;;;20.70;5.60;;;;;;;6.61;77.55;100817.09;103807;1291;25358;-59
2022/02/10 05:24:49;;;;;;;16.30;4.50;;;;;;;6.64;77.56;100817.89;104193;1290;25417;-60
2022/02/10 05:33:14;;;;;;;16.10;4.50;;;;;;;6.65;77.62;100807.38;105065;1281;22672;-60
2022/02/10 05:35:46;;;;;;;17.80;5.10;;;;;;;6.66;77.52;100806.96;105207;1281;22578;-59
2022/02/10 05:38:21;;;;;;;14.50;4.50;;;;;;;6.65;77.51;100803.88;104903;1282;25818;-59
2022/02/10 05:43:51;;;;;;;16.40;5.60;;;;;;;6.66;77.56;100803.23;105154;1282;22663;-59
2022/02/10 05:46:37;;;;;;;18.30;5.40;;;;;;;6.68;77.49;100806.42;105157;1282;22616;-57
2022/02/10 05:49:27;;;;;;;18.90;6.70;;;;;;;6.69;77.51;100811.48;105146;1282;22569;-59
2022/02/10 05:54:53;;;;;;;18.70;6.70;;;;;;;6.70;77.69;100808.73;105640;1271;24040;-59
2022/02/10 05:57:43;;;;;;;17.50;6.10;;;;;;;6.71;77.71;100805.78;105811;1271;25366;-57
2022/02/10 06:38:14;;;;;;;20.10;6.80;;;;;;;6.70;77.66;100804.86;105926;1270;25445;-59
2022/02/10 06:51:17;;;;;;;18.30;6.00;;;;;;;6.64;77.83;100770.39;105431;1274;24155;-59
2022/02/10 06:54:00;;;;;;;19.30;7.00;;;;;;;6.65;77.75;100776.38;105768;1271;22567;-66
2022/02/10 07:05:23;;;;;;;22.10;6.90;;;;;;;6.69;77.77;100772.62;105743;1271;22691;-58
2022/02/10 07:11:05;;;;;;;20.80;6.00;;;;;;;6.72;77.83;100770.40;105909;1270;24332;-56
2022/02/10 07:17:01;;;;;;;24.20;7.10;;;;;;;6.75;77.86;100766.35;105799;1271;22632;-57
2022/02/10 07:48:15;;;;;;;20.40;5.40;;;;;;;6.99;78.10;100758.89;105264;1276;24187;-56
2022/02/10 07:51:13;;;;;;;23.60;6.70;;;;;;;7.02;77.94;100753.48;105315;1276;25379;-54
2022/02/10 07:53:56;;;;;;;19.50;7.50;;;;;;;7.05;77.86;100747.45;105222;1276;22546;-56
2022/02/10 07:56:39;;;;;;;22.20;7.10;;;;;;;7.07;77.84;100738.74;105352;1276;22770;-57
2022/02/10 08:49:52;;;;;;;17.80;6.60;;;;;;;7.90;77.66;100723.81;105046;1281;25411;-57
2022/02/10 09:06:40;;;;;;;25.10;7.60;;;;;;;8.10;77.13;100711.85;104786;1284;24213;-56
2022/02/10 09:57:31;;;;;;;23.10;7.50;;;;;;;8.66;76.55;100666.34;104734;1282;22550;-58
2022/02/10 10:00:12;;;;;;;18.60;6.80;;;;;;;8.70;76.41;100664.00;104936;1282;22576;-57
2022/02/10 10:02:46;;;;;;;19.00;6.60;;;;;;;8.75;76.11;100658.73;105476;1279;22775;-57
2022/02/10 10:05:26;;;;;;;20.90;7.60;;;;;;;8.79;76.23;100658.80;105027;1279;24450;-57
2022/02/10 10:08:12;;;;;;;22.60;6.80;;;;;;;8.85;76.25;100652.38;105271;1279;22536;-58
2022/02/10 10:10:56;;;;;;;17.60;6.70;;;;;;;8.92;76.05;100646.29;105222;1279;25414;-56
2022/02/10 10:13:51;;;;;;;20.20;6.80;;;;;;;8.99;76.12;100639.27;105136;1279;22583;-55
2022/02/10 10:16:39;;;;;;;17.40;6.00;;;;;;;9.07;75.66;100627.96;105138;1279;22584;-58
2022/02/10 10:19:22;;;;;;;20.20;6.00;;;;;;;9.13;75.46;100624.14;105264;1274;22866;-57
2022/02/10 10:22:03;;;;;;;16.10;5.70;;;;;;;9.18;75.18;100616.70;105527;1274;24766;-55
2022/02/10 10:27:43;;;;;;;15.70;5.70;;;;;;;9.23;74.85;100601.19;105329;1276;22564;-57
2022/02/10 10:45:10;;;;;;;19.90;5.80;;;;;;;9.43;74.49;100562.36;104264;1287;22855;-58
2022/02/10 10:50:35;;;;;;;17.10;6.20;;;;;;;9.52;74.36;100548.02;104065;1291;24330;-57
2022/02/10 10:53:14;;;;;;;16.70;5.30;;;;;;;9.56;74.19;100542.91;104143;1290;22776;-57
2022/02/10 10:55:51;;;;;;;17.50;5.40;;;;;;;9.60;74.17;100535.73;104115;1291;24445;-58
2022/02/10 10:58:33;;;;;;;16.20;5.00;;;;;;;9.67;74.48;100526.23;104056;1290;25554;-57
2022/02/10 11:38:27;;;;;;;8.70;1.60;;;;;;;10.68;71.61;100448.73;105864;1270;22582;-58
2022/02/10 11:41:45;;;;;;;6.30;1.80;;;;;;;10.76;71.47;100444.95;105910;1270;22702;-57
2022/02/10 12:39:52;;;;;;;6.00;1.30;;;;;;;11.34;67.71;100336.83;104859;1284;22736;-57
2022/02/10 13:03:16;;;;;;;6.60;1.20;;;;;;;11.18;66.47;100313.96;105092;1280;22544;-56
2022/02/10 14:13:38;;;;;;;7.70;1.20;;;;;;;11.20;64.25;100221.20;105398;1277;26565;-62
2022/02/10 14:16:27;;;;;;;10.40;1.20;;;;;;;11.21;64.30;100217.48;105427;1276;24271;-62
2022/02/10 14:19:07;;;;;;;5.90;1.00;;;;;;;11.21;64.28;100217.34;105369;1277;22704;-62
2022/02/10 14:21:45;;;;;;;6.60;1.30;;;;;;;11.18;64.21;100218.63;105343;1276;24390;-62
2022/02/10 14:27:01;;;;;;;6.30;1.10;;;;;;;11.09;64.18;100218.63;105403;1276;26079;-62
2022/02/10 14:29:30;;;;;;;6.40;1.20;;;;;;;11.05;64.42;100225.20;105682;1276;24241;-62
2022/02/10 14:31:58;;;;;;;5.60;1.20;;;;;;;10.99;64.32;100219.67;105443;1277;22557;-61
2022/02/10 14:34:28;;;;;;;4.70;1.10;;;;;;;10.94;63.91;100221.81;105858;1276;23069;-62
2022/02/10 14:37:15;;;;;;;6.00;1.20;;;;;;;10.88;63.79;100225.07;105505;1276;22707;-61
2022/02/10 14:39:59;;;;;;;8.50;1.50;;;;;;;10.82;63.71;100223.94;105754;1271;23003;-61
2022/02/10 15:21:47;;;;;;;10.80;2.20;;;;;;;10.18;64.83;100229.52;105824;1278;24218;-62
2022/02/10 15:49:55;;;;;;;18.50;2.20;;;;;;;9.84;65.53;100254.85;105285;1277;22930;-62
2022/02/10 16:17:44;;;;;;;8.80;2.00;;;;;;;9.88;64.46;100255.32;104311;1287;22582;-62
2022/02/10 16:20:18;;;;;;;12.00;2.30;;;;;;;9.89;64.64;100256.55;104706;1285;22561;-60
2022/02/10 16:22:59;;;;;;;11.40;2.20;;;;;;;9.88;64.32;100258.89;106009;1285;25533;-62
2022/02/10 16:25:31;;;;;;;13.10;2.70;;;;;;;9.88;64.54;100260.59;104477;1288;27802;-61
2022/02/10 16:28:09;;;;;;;9.60;2.10;;;;;;;9.87;64.32;100258.70;105162;1285;24422;-60
2022/02/10 16:30:40;;;;;;;11.90;2.70;;;;;;;9.87;64.42;100260.88;106705;1266;23362;-59
2022/02/10 16:33:09;;;;;;;11.00;2.60;;;;;;;9.86;64.16;100259.73;105729;1272;22713;-57
2022/02/10 16:35:39;;;;;;;13.50;3.40;;;;;;;9.85;64.23;100261.77;106403;1272;24384;-59
2022/02/10 16:38:08;;;;;;;13.90;3.40;;;;;;;9.84;64.40;100258.45;105908;1272;22573;-58
2022/02/10 16:40:38;;;;;;;11.30;2.80;;;;;;;9.83;64.36;100261.80;105772;1273;22757;-58
2022/02/10 16:43:07;;;;;;;9.60;2.10;;;;;;;9.80;64.45;100263.59;105769;1273;24238;-59
2022/02/10 16:45:36;;;;;;;9.90;2.40;;;;;;;9.77;64.12;100267.23;105666;1273;22559;-58
2022/02/10 16:48:06;;;;;;;14.10;3.60;;;;;;;9.77;64.23;100268.28;105710;1273;24665;-59
2022/02/10 16:50:37;;;;;;;16.80;3.00;;;;;;;9.76;64.56;100269.73;105788;1273;22691;-58
2022/02/10 16:53:11;;;;;;;11.50;3.80;;;;;;;9.75;64.62;100267.48;105758;1273;25424;-58
2022/02/10 16:55:45;;;;;;;16.10;3.40;;;;;;;9.75;64.56;100269.48;105647;1273;22577;-58
2022/02/10 16:58:24;;;;;;;14.50;4.10;;;;;;;9.73;64.75;100260.48;105613;1273;24387;-60
2022/02/10 17:04:16;;;;;;;13.50;3.00;;;;;;;9.71;64.70;100257.95;105389;1276;23194;-60
2022/02/10 17:20:44;;;;;;;10.90;2.40;;;;;;;9.65;64.75;100274.20;105003;1282;22558;-58
2022/02/10 17:26:03;;;;;;;12.20;2.40;;;;;;;9.66;64.46;100279.73;104847;1282;22543;-60
2022/02/10 17:28:34;;;;;;;10.70;2.80;;;;;;;9.66;64.18;100284.56;105023;1282;22552;-60
2022/02/10 17:31:23;;;;;;;12.70;3.00;;;;;;;9.68;64.09;100287.89;105062;1283;24860;-59
2022/02/10 17:34:13;;;;;;;13.10;3.30;;;;;;;9.69;63.57;100292.53;104734;1282;22632;-59
2022/02/10 17:36:51;;;;;;;12.30;3.20;;;;;;;9.72;63.40;100299.48;104823;1282;26697;-60
2022/02/10 17:42:28;;;;;;;11.20;2.80;;;;;;;9.73;63.36;100320.85;105281;1279;25505;-59
2022/02/10 17:45:17;;;;;;;12.10;2.90;;;;;;;9.69;63.27;100317.50;105270;1280;22863;-58
2022/02/10 17:53:24;;;;;;;8.70;1.80;;;;;;;9.45;63.59;100321.09;105325;1280;24490;-58
2022/02/10 17:55:54;;;;;;;7.40;2.00;;;;;;;9.38;63.76;100321.83;105539;1281;22535;-61
2022/02/10 17:58:23;;;;;;;9.90;2.40;;;;;;;9.31;63.86;100318.66;105820;1273;24284;-59
2022/02/10 18:00:52;;;;;;;11.90;2.60;;;;;;;9.24;64.08;100320.81;105737;1273;22547;-60
2022/02/10 18:03:21;;;;;;;11.30;3.00;;;;;;;9.16;64.24;100320.79;106365;1273;25337;-59
2022/02/10 18:06:14;;;;;;;13.60;3.60;;;;;;;9.10;64.32;100312.80;105627;1274;25375;-60
2022/02/10 18:08:47;;;;;;;14.80;4.00;;;;;;;9.02;64.60;100319.38;105531;1273;23165;-59
2022/02/10 18:12:12;;;;;;;14.50;4.40;;;;;;;8.96;64.81;100314.00;105706;1273;23019;-59
2022/02/10 18:14:36;;;;;;;14.10;3.20;;;;;;;8.89;64.96;100324.63;105717;1274;24323;-60
2022/02/10 18:17:11;;;;;;;15.00;3.40;;;;;;;8.85;65.12;100329.91;105628;1273;25397;-60
2022/02/10 18:19:45;;;;;;;18.00;4.20;;;;;;;8.80;65.22;100328.21;105635;1273;22563;-60
2022/02/10 18:22:36;;;;;;;16.10;4.50;;;;;;;8.76;65.44;100336.25;105867;1273;25326;-60
2022/02/10 18:25:27;;;;;;;18.20;5.50;;;;;;;8.72;65.58;100342.30;105692;1273;22700;-59
2022/02/10 18:28:21;;;;;;;15.70;5.00;;;;;;;8.68;65.81;100349.34;105544;1274;23468;-57
2022/02/10 19:02:20;;;;;;;16.50;5.50;;;;;;;8.27;67.74;100387.98;104613;1284;26625;-58
2022/02/10 19:07:38;;;;;;;14.80;5.80;;;;;;;8.22;68.05;100388.80;105164;1282;24320;-61
2022/02/10 19:10:10;;;;;;;20.30;6.00;;;;;;;8.20;68.04;100391.02;104861;1282;22575;-63
2022/02/10 19:12:44;;;;;;;20.80;7.00;;;;;;;8.17;68.14;100392.15;105537;1281;49083;-60
2022/02/10 19:15:19;;;;;;;19.30;6.80;;;;;;;8.15;68.12;100389.24;104544;1281;24384;-59
2022/02/10 19:17:50;;;;;;;15.90;5.30;;;;;;;8.13;68.23;100395.17;106990;1279;22637;-59
2022/02/10 19:20:20;;;;;;;13.80;4.60;;;;;;;8.12;68.46;100402.70;108204;1279;22591;-60
2022/02/10 19:22:50;;;;;;;21.30;5.70;;;;;;;8.10;68.50;100401.12;105141;1281;25278;-63
2022/02/10 19:25:20;;;;;;;13.80;4.90;;;;;;;8.09;68.69;100404.81;105342;1281;22871;-60
2022/02/10 19:27:50;;;;;;;16.70;5.70;;;;;;;8.07;68.70;100402.27;105367;1281;22609;-61
2022/02/10 19:30:21;;;;;;;22.90;6.60;;;;;;;8.05;68.87;100403.38;105671;1274;23989;-61
2022/02/10 19:32:55;;;;;;;19.50;6.00;;;;;;;8.03;68.95;100404.96;105455;1274;22567;-60
2022/02/10 19:35:25;;;;;;;16.90;5.90;;;;;;;8.00;68.98;100408.10;109305;1273;23238;-60
2022/02/10 19:37:56;;;;;;;;;;;;;;;7.98;69.14;100409.23;105815;1274;24493;-59
2022/02/10 19:40:27;;;;;;;17.40;5.90;;;;;;;7.94;69.32;100412.71;105048;1273;22631;-60
2022/02/10 19:42:56;;;;;;;;;;;;;;;7.90;69.55;100417.64;109367;1273;24062;-61
2022/02/10 19:45:25;;;;;;;13.60;5.10;;;;;;;7.86;69.61;100416.43;109391;1273;22511;-60
2022/02/10 19:47:55;;;;;;;17.50;6.60;;;;;;;7.84;69.60;100424.23;109046;1273;22729;-60
2022/02/10 19:50:27;;;;;;;18.50;6.90;;;;;;;7.81;69.67;100431.63;109318;1273;22595;-61
2022/02/10 19:53:00;;;;;;;22.30;6.80;;;;;;;7.79;69.87;100434.59;109434;1273;23037;-61
2022/02/10 19:55:34;;;;;;;19.40;6.50;;;;;;;7.75;69.95;100440.48;109393;1273;22429;-61
2022/02/10 19:58:07;;;;;;;18.20;4.60;;;;;;;7.70;70.16;100440.88;109366;1273;22677;-61
2022/02/10 20:00:44;;;;;;;16.50;6.10;;;;;;;7.67;70.06;100441.80;109375;1273;23231;-61
2022/02/10 20:03:16;;;;;;;18.80;5.30;;;;;;;7.64;70.21;100445.34;109346;1273;22546;-61
2022/02/10 20:05:45;;;;;;;14.50;5.40;;;;;;;7.60;70.52;100439.86;109417;1273;23623;-63
2022/02/10 20:08:16;;;;;;;13.90;6.20;;;;;;;7.56;70.60;100450.80;109377;1273;22442;-64
2022/02/10 20:10:48;;;;;;;17.60;6.30;;;;;;;7.53;70.88;100449.32;109385;1273;22427;-63
2022/02/10 20:13:17;;;;;;;17.80;5.50;;;;;;;7.51;71.07;100458.85;109353;1273;22454;-61
2022/02/10 20:15:48;;;;;;;17.70;6.00;;;;;;;7.49;71.33;100459.14;109247;1274;22488;-61
2022/02/10 20:18:17;;;;;;;15.50;6.80;;;;;;;7.48;71.38;100462.19;109360;1272;22460;-62
2022/02/10 20:20:53;;;;;;;17.30;5.90;;;;;;;7.47;71.34;100463.81;109336;1273;23214;-62
2022/02/10 20:23:24;;;;;;;17.00;7.00;;;;;;;7.47;71.56;100465.91;108844;1274;25346;-60
2022/02/10 20:25:53;;;;;;;19.60;5.30;;;;;;;7.46;71.67;100469.42;105937;1274;22560;-61
2022/02/10 20:28:23;;;;;;;23.30;7.20;;;;;;;7.45;71.63;100471.30;106359;1274;25254;-60
2022/02/10 20:30:52;;;;;;;20.30;8.40;;;;;;;7.44;71.84;100470.86;105752;1274;22530;-60
2022/02/10 20:33:23;;;;;;;18.30;7.80;;;;;;;7.43;71.73;100473.66;106718;1272;22555;-60
2022/02/10 20:35:55;;;;;;;20.80;8.00;;;;;;;7.42;72.14;100472.42;105856;1274;24031;-61
2022/02/10 20:38:25;;;;;;;19.90;7.30;;;;;;;7.40;72.03;100470.60;105755;1274;22557;-58
2022/02/10 20:40:56;;;;;;;22.90;7.80;;;;;;;7.40;72.08;100469.50;106821;1273;25372;-61
2022/02/10 20:43:25;;;;;;;23.80;8.60;;;;;;;7.39;72.24;100469.94;105963;1274;25391;-61
2022/02/10 20:45:57;;;;;;;20.90;7.30;;;;;;;7.39;72.30;100469.52;105963;1274;26040;-61
2022/02/10 20:48:28;;;;;;;20.00;8.50;;;;;;;7.37;72.43;100467.91;105986;1274;22714;-61
2022/02/10 20:50:59;;;;;;;21.20;8.30;;;;;;;7.37;72.50;100472.55;105448;1274;25333;-61
2022/02/10 20:53:30;;;;;;;20.50;7.90;;;;;;;7.36;72.62;100476.85;105393;1274;24400;-60
2022/02/10 20:56:02;;;;;;;22.40;8.80;;;;;;;7.35;72.68;100480.20;105644;1274;24318;-63
2022/02/10 20:58:32;;;;;;;21.20;7.70;;;;;;;7.35;72.68;100479.65;105930;1274;25340;-60
2022/02/10 21:01:03;;;;;;;21.60;8.80;;;;;;;7.34;72.74;100484.17;105827;1274;22566;-60
2022/02/10 21:03:35;;;;;;;22.60;10.20;;;;;;;7.34;72.84;100483.16;105942;1273;22577;-61
2022/02/10 21:06:10;;;;;;;25.90;9.90;;;;;;;7.34;72.82;100482.92;105680;1274;24183;-60
2022/02/10 21:08:45;;;;;;;24.60;10.30;;;;;;;7.34;73.01;100482.85;106378;1274;22711;-61
2022/02/10 21:11:15;;;;;;;21.90;8.90;;;;;;;7.34;73.24;100485.69;105480;1274;23494;-62
2022/02/10 21:13:45;;;;;;;27.60;9.20;;;;;;;7.34;73.27;100489.11;105445;1274;22710;-62
2022/02/10 21:16:14;;;;;;;21.60;8.60;;;;;;;7.33;73.31;100489.55;105824;1274;25320;-61
2022/02/10 21:18:44;;;;;;;20.40;9.10;;;;;;;7.32;73.39;100490.27;107773;1274;25439;-59
2022/02/10 21:21:15;;;;;;;20.40;8.00;;;;;;;7.32;73.42;100488.86;105733;1272;22577;-57
2022/02/10 21:23:51;;;;;;;19.90;7.20;;;;;;;7.33;73.58;100492.96;105425;1272;24412;-59
2022/02/10 21:26:26;;;;;;;23.50;9.50;;;;;;;7.32;73.81;100492.77;105492;1274;23236;-59
2022/02/10 21:29:01;;;;;;;23.40;8.70;;;;;;;7.31;73.77;100492.55;105430;1274;22538;-60
2022/02/10 21:31:31;;;;;;;20.30;8.40;;;;;;;7.30;73.80;100494.48;105136;1274;333987;-61
2022/02/10 21:34:09;;;;;;;21.90;10.10;;;;;;;7.29;73.99;100499.13;105593;1274;25339;-60
2022/02/10 21:36:55;;;;;;;21.60;9.70;;;;;;;7.29;74.09;100502.55;105795;1274;25331;-63
2022/02/10 21:39:31;;;;;;;24.20;9.50;;;;;;;7.27;74.26;100498.97;105687;1274;25338;-61
2022/02/10 21:47:53;;;;;;;21.70;8.90;;;;;;;7.21;74.99;100500.13;105604;1273;25279;-62
2022/02/10 22:10:04;;;;;;;11.50;4.10;;;;;;;6.77;77.71;100534.38;105634;1273;22688;-60
2022/02/10 22:21:06;;;;;;;7.50;1.20;;;;;;;6.11;79.07;100554.05;105172;1278;24379;-60
2022/02/10 22:23:37;;;;;;;4.90;1.20;;;;;;;6.01;79.24;100555.77;105290;1278;24797;-61
2022/02/10 22:26:07;;;;;;;4.50;1.20;;;;;;;5.92;79.61;100555.41;105218;1281;22758;-60
2022/02/10 22:28:46;;;;;;;3.10;0.80;;;;;;;5.84;80.17;100553.48;105304;1281;25401;-61
2022/02/10 22:31:29;;;;;;;3.90;0.80;;;;;;;5.76;79.91;100554.40;105156;1280;24496;-61
2022/02/10 22:34:09;;;;;;;3.00;0.50;;;;;;;5.69;79.90;100557.67;105262;1278;22612;-61
2022/02/10 22:36:40;;;;;;;5.60;0.80;;;;;;;5.65;80.17;100556.14;105227;1279;22718;-61
2022/02/10 22:39:11;;;;;;;2.20;0.40;;;;;;;5.61;79.89;100556.88;105398;1278;24566;-60
2022/02/10 22:41:41;;;;;;;3.40;0.50;;;;;;;5.56;79.94;100555.18;105341;1280;22612;-60
2022/02/10 22:44:10;;;;;;;2.20;0.40;;;;;;;5.53;79.86;100550.93;105365;1279;24156;-61
2022/02/10 22:46:39;;;;;;;2.50;0.50;;;;;;;5.52;79.83;100547.39;105295;1278;22559;-61
2022/02/10 22:49:08;;;;;;;2.00;0.50;;;;;;;5.53;79.69;100548.07;105572;1279;24516;-61
2022/02/10 22:51:38;;;;;;;2.80;0.70;;;;;;;5.54;79.64;100553.11;106175;1263;24288;-64
2022/02/10 22:54:07;;;;;;;;;;;;;;;5.53;79.69;100556.70;105679;1271;22529;-63
2022/02/10 22:56:38;;;;;;;2.10;0.50;;;;;;;5.50;79.76;100554.79;106195;1271;22745;-65
2022/02/10 22:59:08;;;;;;;1.30;0.40;;;;;;;5.51;79.79;100556.91;106006;1271;25550;-64
2022/02/10 23:01:38;;;;;;;3.00;0.50;;;;;;;5.51;79.82;100556.29;105976;1271;22618;-65
2022/02/10 23:04:08;;;;;;;2.20;0.60;;;;;;;5.49;79.74;100561.45;106129;1270;24214;-64
2022/02/10 23:06:37;;;;;;;2.70;0.50;;;;;;;5.49;79.78;100564.08;105914;1271;22573;-64
2022/02/10 23:09:30;;;;;;;2.70;0.60;;;;;;;5.49;79.72;100567.23;105762;1270;25223;-66
2022/02/10 23:12:00;;;;;;;1.90;0.50;;;;;;;5.48;79.81;100570.59;105638;1271;22544;-64
2022/02/10 23:14:29;;;;;;;3.50;0.60;;;;;;;5.50;79.82;100571.04;105652;1272;25654;-63
2022/02/10 23:16:59;;;;;;;2.30;0.50;;;;;;;5.51;79.89;100572.35;105929;1271;24259;-64
2022/02/10 23:19:28;;;;;;;5.10;0.80;;;;;;;5.52;79.86;100572.96;106161;1271;22763;-64
2022/02/10 23:21:57;;;;;;;4.50;0.80;;;;;;;5.54;79.88;100577.79;106074;1271;22669;-64
2022/02/10 23:24:25;;;;;;;4.30;0.80;;;;;;;5.56;79.94;100579.96;106070;1271;22609;-64
2022/02/10 23:26:54;;;;;;;3.30;0.70;;;;;;;5.60;79.93;100584.06;105742;1271;22557;-63
2022/02/10 23:29:23;;;;;;;2.50;0.60;;;;;;;5.62;79.98;100580.91;105675;1271;25378;-63
2022/02/10 23:31:52;;;;;;;2.60;0.70;;;;;;;5.65;80.01;100579.95;105907;1271;25255;-64
2022/02/10 23:34:21;;;;;;;4.90;1.00;;;;;;;5.66;79.98;100586.02;105782;1271;25429;-64
2022/02/10 23:36:52;;;;;;;6.20;1.10;;;;;;;5.67;80.03;100587.48;105906;1271;22540;-64
2022/02/10 23:39:26;;;;;;;4.60;1.10;;;;;;;5.69;80.00;100582.44;105868;1274;23978;-64
2022/02/10 23:44:47;;;;;;;3.60;0.90;;;;;;;5.76;80.05;100585.74;105751;1271;22545;-64
2022/02/10 23:47:20;;;;;;;5.10;1.10;;;;;;;5.78;80.01;100586.95;106099;1271;23233;-64
2022/02/10 23:49:51;;;;;;;5.80;1.00;;;;;;;5.81;80.01;100590.36;106011;1271;24336;-64
2022/02/10 23:52:20;;;;;;;4.30;1.00;;;;;;;5.82;80.01;100591.75;105970;1271;22563;-65
2022/02/10 23:54:54;;;;;;;5.90;1.10;;;;;;;5.85;79.89;100581.65;106108;1271;24286;-64
2022/02/10 23:57:31;;;;;;;5.30;1.30;;;;;;;5.87;79.98;100579.23;105580;1271;22559;-64
